Time,TemperatureF,DewpointF,PressureIn,WindDirection,WindDirectionDegrees,WindSpeedMPH,WindSpeedGustMPH,Humidity,HourlyPrecipIn,Conditions,Clouds,dailyrainin,SoftwareType,DateUTC
2013-10-24 00:00:00,43.3,42.0,29.60,West,277,0.0,37.0,95,0.00,,,0.16,Wunderground v.1.15,2013-10-24 04:00:00,
2013-10-24 00:10:00,43.2,41.9,29.60,West,259,0.0,37.0,95,0.00,,,0.00,Wunderground v.1.15,2013-10-24 04:10:00,
2013-10-24 00:20:00,43.3,42.0,29.60,West,269,0.0,37.0,95,0.00,,,0.00,Wunderground v.1.15,2013-10-24 04:20:00,
2013-10-24 00:30:00,43.3,42.0,29.59,WNW,283,0.0,37.0,95,0.00,,,0.00,Wunderground v.1.15,2013-10-24 04:30:00,
2013-10-24 00:40:00,43.3,41.7,29.60,WSW,253,0.0,37.0,94,0.00,,,0.00,Wunderground v.1.15,2013-10-24 04:40:00,
2013-10-24 00:50:00,43.0,41.4,29.60,West,263,0.0,37.0,94,0.00,,,0.00,Wunderground v.1.15,2013-10-24 04:50:00,
2013-10-24 01:00:00,42.9,41.0,29.60,WSW,250,1.0,1.0,93,0.00,,,0.00,Wunderground v.1.15,2013-10-24 05:00:00,
2013-10-24 01:10:00,42.8,40.6,29.60,WSW,251,1.0,37.0,92,0.00,,,0.00,Wunderground v.1.15,2013-10-24 05:10:00,
2013-10-24 01:20:00,42.9,40.5,29.60,West,259,1.0,37.0,91,0.00,,,0.00,Wunderground v.1.15,2013-10-24 05:20:00,
2013-10-24 01:30:00,42.7,40.3,29.60,WSW,255,2.0,2.0,91,0.00,,,0.00,Wunderground v.1.15,2013-10-24 05:30:00,
2013-10-24 01:40:00,42.7,40.3,29.60,West,269,3.0,37.0,91,0.00,,,0.00,Wunderground v.1.15,2013-10-24 05:40:00,
2013-10-24 01:50:00,42.4,40.2,29.61,WNW,283,3.0,3.0,92,0.00,,,0.00,Wunderground v.1.15,2013-10-24 05:50:00,
2013-10-24 02:00:00,42.5,40.3,29.61,West,277,4.0,37.0,92,0.00,,,0.00,Wunderground v.1.15,2013-10-24 06:00:00,
2013-10-24 02:10:00,42.6,40.4,29.61,West,280,3.0,37.0,92,0.00,,,0.00,Wunderground v.1.15,2013-10-24 06:10:00,
2013-10-24 02:20:00,42.6,40.4,29.61,WNW,297,3.0,37.0,92,0.00,,,0.00,Wunderground v.1.15,2013-10-24 06:20:00,
2013-10-24 02:30:00,42.5,40.6,29.61,West,280,2.0,37.0,93,0.00,,,0.00,Wunderground v.1.15,2013-10-24 06:30:00,
2013-10-24 02:40:00,42.4,40.5,29.61,WNW,290,2.0,2.0,93,0.00,,,0.00,Wunderground v.1.15,2013-10-24 06:40:00,
2013-10-24 02:50:00,42.3,40.4,29.61,NW,307,2.0,37.0,93,0.00,,,0.00,Wunderground v.1.15,2013-10-24 06:50:00,
2013-10-24 03:00:00,42.4,40.5,29.61,West,271,2.0,37.0,93,0.00,,,0.00,Wunderground v.1.15,2013-10-24 07:00:00,
2013-10-24 03:10:00,42.3,40.4,29.61,WNW,283,2.0,37.0,93,0.00,,,0.00,Wunderground v.1.15,2013-10-24 07:10:00,
2013-10-24 03:20:00,42.2,40.3,29.61,WNW,287,2.0,37.0,93,0.00,,,0.00,Wunderground v.1.15,2013-10-24 07:20:00,
2013-10-24 03:30:00,42.2,40.3,29.62,WNW,287,2.0,37.0,93,0.00,,,0.00,Wunderground v.1.15,2013-10-24 07:30:00,
2013-10-24 03:40:00,42.4,40.5,29.62,WNW,289,2.0,37.0,93,0.00,,,0.00,Wunderground v.1.15,2013-10-24 07:40:00,
2013-10-24 03:50:00,42.7,40.5,29.63,WNW,284,2.0,37.0,92,0.00,,,0.00,Wunderground v.1.15,2013-10-24 07:50:00,
2013-10-24 04:00:00,42.8,40.6,29.63,WNW,299,2.0,2.0,92,0.00,,,0.00,Wunderground v.1.15,2013-10-24 08:00:00,
2013-10-24 04:10:00,42.9,40.7,29.63,WNW,290,1.0,37.0,92,0.00,,,0.00,Wunderground v.1.15,2013-10-24 08:10:00,
2013-10-24 04:20:00,43.0,40.8,29.64,West,264,1.0,37.0,92,0.00,,,0.00,Wunderground v.1.15,2013-10-24 08:20:00,
2013-10-24 04:30:00,42.9,40.7,29.64,WNW,297,2.0,37.0,92,0.00,,,0.00,Wunderground v.1.15,2013-10-24 08:30:00,
2013-10-24 04:40:00,42.9,40.7,29.65,WNW,287,2.0,37.0,92,0.00,,,0.00,Wunderground v.1.15,2013-10-24 08:40:00,
2013-10-24 04:50:00,42.9,40.7,29.65,WNW,291,2.0,37.0,92,0.00,,,0.00,Wunderground v.1.15,2013-10-24 08:50:00,
2013-10-24 05:00:00,42.6,40.4,29.66,WNW,300,2.0,2.0,92,0.00,,,0.00,Wunderground v.1.15,2013-10-24 09:00:00,
2013-10-24 05:10:00,42.4,40.2,29.67,WSW,256,1.0,37.0,92,0.00,,,0.00,Wunderground v.1.15,2013-10-24 09:10:00,
2013-10-24 05:20:00,42.3,39.9,29.67,WNW,302,2.0,37.0,91,0.00,,,0.00,Wunderground v.1.15,2013-10-24 09:20:00,
2013-10-24 05:30:00,42.0,39.6,29.68,West,281,2.0,37.0,91,0.00,,,0.00,Wunderground v.1.15,2013-10-24 09:30:00,
2013-10-24 05:40:00,41.6,39.4,29.68,West,280,2.0,37.0,92,0.00,,,0.00,Wunderground v.1.15,2013-10-24 09:40:00,
2013-10-24 05:50:00,41.4,39.3,29.68,West,269,3.0,3.0,92,0.00,,,0.00,Wunderground v.1.15,2013-10-24 09:50:00,
2013-10-24 06:00:00,41.1,39.0,29.69,West,259,2.0,37.0,92,0.00,,,0.00,Wunderground v.1.15,2013-10-24 10:00:00,
2013-10-24 06:10:00,40.9,39.0,29.70,WNW,285,2.0,37.0,93,0.00,,,0.00,Wunderground v.1.15,2013-10-24 10:10:00,
2013-10-24 06:20:00,40.7,38.8,29.70,NW,314,3.0,37.0,93,0.00,,,0.00,Wunderground v.1.15,2013-10-24 10:20:00,
2013-10-24 06:30:00,40.7,38.8,29.70,WNW,283,4.0,37.0,93,0.00,,,0.00,Wunderground v.1.15,2013-10-24 10:30:00,
2013-10-24 06:40:00,40.9,38.8,29.70,WNW,291,4.0,4.0,92,0.00,,,0.00,Wunderground v.1.15,2013-10-24 10:40:00,
2013-10-24 06:50:00,41.3,39.2,29.71,NW,307,4.0,37.0,92,0.00,,,0.00,Wunderground v.1.15,2013-10-24 10:50:00,
2013-10-24 07:00:00,42.0,39.6,29.71,West,274,4.0,4.0,91,0.00,,,0.00,Wunderground v.1.15,2013-10-24 11:00:00,
2013-10-24 07:10:00,42.3,39.6,29.72,West,276,3.0,3.0,90,0.00,,,0.00,Wunderground v.1.15,2013-10-24 11:10:00,
2013-10-24 07:20:00,42.8,39.5,29.72,NW,306,4.0,37.0,88,0.00,,,0.00,Wunderground v.1.15,2013-10-24 11:20:00,
2013-10-24 07:30:00,43.2,39.6,29.73,WNW,287,4.0,37.0,87,0.00,,,0.00,Wunderground v.1.15,2013-10-24 11:30:00,
2013-10-24 07:40:00,43.6,39.7,29.73,West,277,4.0,4.0,86,0.00,,,0.00,Wunderground v.1.15,2013-10-24 11:40:00,
2013-10-24 07:50:00,43.8,39.9,29.74,WNW,300,4.0,37.0,86,0.00,,,0.00,Wunderground v.1.15,2013-10-24 11:50:00,
2013-10-24 08:00:00,44.0,40.1,29.74,WNW,298,4.0,37.0,86,0.00,,,0.00,Wunderground v.1.15,2013-10-24 12:00:00,
2013-10-24 08:12:00,44.7,40.8,29.74,WNW,297,4.0,4.0,86,0.00,,,0.00,Wunderground v.1.15,2013-10-24 12:12:00,
2013-10-24 08:20:00,45.1,40.9,29.75,North,4,4.0,37.0,85,0.00,,,0.00,Wunderground v.1.15,2013-10-24 12:20:00,
2013-10-24 08:30:00,45.7,40.8,29.75,WNW,285,5.0,5.0,83,0.00,,,0.00,Wunderground v.1.15,2013-10-24 12:30:00,
2013-10-24 08:40:00,46.0,40.8,29.76,NW,319,5.0,37.0,82,0.00,,,0.00,Wunderground v.1.15,2013-10-24 12:40:00,
2013-10-24 08:50:00,46.0,40.2,29.76,NW,309,6.0,37.0,80,0.00,,,0.00,Wunderground v.1.15,2013-10-24 12:50:00,
2013-10-24 09:00:00,46.1,39.6,29.76,WNW,300,6.0,37.0,78,0.00,,,0.00,Wunderground v.1.15,2013-10-24 13:00:00,
2013-10-24 09:10:00,46.1,39.0,29.77,NW,325,8.0,37.0,76,0.00,,,0.00,Wunderground v.1.15,2013-10-24 13:10:00,
2013-10-24 09:20:00,46.3,38.1,29.77,WNW,300,8.0,8.0,73,0.00,,,0.00,Wunderground v.1.15,2013-10-24 13:20:00,
2013-10-24 09:30:00,46.5,38.7,29.78,NW,307,7.0,37.0,74,0.00,,,0.00,Wunderground v.1.15,2013-10-24 13:30:00,
2013-10-24 09:40:00,46.7,38.9,29.78,WSW,252,8.0,37.0,74,0.00,,,0.00,Wunderground v.1.15,2013-10-24 13:40:00,
2013-10-24 09:50:00,46.8,37.5,29.78,WNW,283,9.0,37.0,70,0.00,,,0.00,Wunderground v.1.15,2013-10-24 13:50:00,
2013-10-24 10:00:00,47.2,38.3,29.79,WSW,253,8.0,37.0,71,0.00,,,0.00,Wunderground v.1.15,2013-10-24 14:00:00,
2013-10-24 10:10:00,47.3,37.6,29.79,North,359,8.0,8.0,69,0.00,,,0.00,Wunderground v.1.15,2013-10-24 14:10:00,
2013-10-24 10:20:00,47.4,36.6,29.79,West,269,7.0,37.0,66,0.00,,,0.00,Wunderground v.1.15,2013-10-24 14:20:00,
2013-10-24 10:30:00,47.3,36.5,29.79,WNW,300,8.0,37.0,66,0.00,,,0.00,Wunderground v.1.15,2013-10-24 14:30:00,
2013-10-24 10:40:00,47.5,36.3,29.79,WNW,292,8.0,8.0,65,0.00,,,0.00,Wunderground v.1.15,2013-10-24 14:40:00,
2013-10-24 10:50:00,47.6,35.2,29.80,West,269,9.0,9.0,62,0.00,,,0.00,Wunderground v.1.15,2013-10-24 14:50:00,
2013-10-24 11:00:00,47.7,33.6,29.80,WNW,293,8.0,8.0,58,0.00,,,0.00,Wunderground v.1.15,2013-10-24 15:00:00,
2013-10-24 11:10:00,48.3,33.8,29.80,WNW,303,6.0,37.0,57,0.00,,,0.00,Wunderground v.1.15,2013-10-24 15:10:00,
2013-10-24 11:20:00,48.6,33.6,29.80,SW,219,7.0,37.0,56,0.00,,,0.00,Wunderground v.1.15,2013-10-24 15:20:00,
2013-10-24 11:30:00,49.1,34.1,29.80,NW,312,7.0,7.0,56,0.00,,,0.00,Wunderground v.1.15,2013-10-24 15:30:00,
2013-10-24 11:40:00,49.1,33.6,29.79,West,281,6.0,37.0,55,0.00,,,0.00,Wunderground v.1.15,2013-10-24 15:40:00,
2013-10-24 11:50:00,49.0,34.0,29.79,WNW,284,8.0,8.0,56,0.00,,,0.00,Wunderground v.1.15,2013-10-24 15:50:00,
2013-10-24 12:00:00,49.4,33.4,29.78,NW,323,7.0,37.0,54,0.00,,,0.00,Wunderground v.1.15,2013-10-24 16:00:00,
2013-10-24 12:10:00,49.5,31.6,29.78,WNW,283,6.0,37.0,50,0.00,,,0.00,Wunderground v.1.15,2013-10-24 16:10:00,
2013-10-24 12:20:00,49.6,31.7,29.77,WNW,287,7.0,37.0,50,0.00,,,0.00,Wunderground v.1.15,2013-10-24 16:20:00,
2013-10-24 12:30:00,49.6,32.2,29.77,West,259,6.0,6.0,51,0.00,,,0.00,Wunderground v.1.15,2013-10-24 16:30:00,
2013-10-24 12:40:00,50.4,32.4,29.77,West,260,4.0,37.0,50,0.00,,,0.00,Wunderground v.1.15,2013-10-24 16:40:00,
2013-10-24 12:50:00,51.0,31.5,29.76,WNW,283,5.0,37.0,47,0.00,,,0.00,Wunderground v.1.15,2013-10-24 16:50:00,
2013-10-24 13:00:00,51.5,30.8,29.76,WNW,297,6.0,37.0,45,0.00,,,0.00,Wunderground v.1.15,2013-10-24 17:00:00,
2013-10-24 13:10:00,51.2,32.7,29.76,SW,232,8.0,8.0,49,0.00,,,0.00,Wunderground v.1.15,2013-10-24 17:10:00,
2013-10-24 13:20:00,50.6,32.1,29.75,WSW,243,8.0,37.0,49,0.00,,,0.00,Wunderground v.1.15,2013-10-24 17:20:00,
2013-10-24 13:30:00,50.7,31.7,29.76,SW,225,9.0,37.0,48,0.00,,,0.00,Wunderground v.1.15,2013-10-24 17:30:00,
2013-10-24 13:40:00,51.0,33.0,29.75,SW,231,11.0,11.0,50,0.00,,,0.00,Wunderground v.1.15,2013-10-24 17:40:00,
2013-10-24 13:50:00,51.0,32.0,29.75,WSW,243,8.0,37.0,48,0.00,,,0.00,Wunderground v.1.15,2013-10-24 17:50:00,
2013-10-24 14:00:00,51.3,32.3,29.75,West,276,9.0,9.0,48,0.00,,,0.00,Wunderground v.1.15,2013-10-24 18:00:00,
2013-10-24 14:10:00,51.2,32.7,29.75,SW,229,10.0,37.0,49,0.00,,,0.00,Wunderground v.1.15,2013-10-24 18:10:00,
2013-10-24 14:20:00,51.4,32.3,29.75,WSW,243,10.0,37.0,48,0.00,,,0.00,Wunderground v.1.15,2013-10-24 18:20:00,
2013-10-24 14:30:00,50.6,33.1,29.75,WNW,288,9.0,9.0,51,0.00,,,0.00,Wunderground v.1.15,2013-10-24 18:30:00,
2013-10-24 14:40:00,50.7,33.2,29.75,WSW,250,10.0,37.0,51,0.00,,,0.00,Wunderground v.1.15,2013-10-24 18:40:00,
2013-10-24 14:50:00,51.1,31.0,29.75,West,273,7.0,37.0,46,0.00,,,0.00,Wunderground v.1.15,2013-10-24 18:50:00,
2013-10-24 15:00:00,50.9,29.7,29.75,WNW,283,10.0,37.0,44,0.00,,,0.00,Wunderground v.1.15,2013-10-24 19:00:00,
2013-10-24 15:10:00,51.3,31.7,29.75,WSW,243,7.0,7.0,47,0.00,,,0.00,Wunderground v.1.15,2013-10-24 19:10:00,
2013-10-24 15:20:00,51.4,30.7,29.75,WNW,283,9.0,9.0,45,0.00,,,0.00,Wunderground v.1.15,2013-10-24 19:20:00,
2013-10-24 15:30:00,51.5,30.3,29.76,SW,229,9.0,9.0,44,0.00,,,0.00,Wunderground v.1.15,2013-10-24 19:30:00,
2013-10-24 15:40:00,51.6,30.4,29.76,WSW,238,7.0,37.0,44,0.00,,,0.00,Wunderground v.1.15,2013-10-24 19:40:00,
2013-10-24 15:50:00,52.0,30.7,29.76,West,264,7.0,7.0,44,0.00,,,0.00,Wunderground v.1.15,2013-10-24 19:50:00,
2013-10-24 16:00:00,52.0,29.6,29.77,West,267,7.0,37.0,42,0.00,,,0.00,Wunderground v.1.15,2013-10-24 20:00:00,
2013-10-24 16:10:00,52.0,29.0,29.77,West,264,8.0,37.0,41,0.00,,,0.00,Wunderground v.1.15,2013-10-24 20:10:00,
2013-10-24 16:20:00,51.7,29.3,29.77,WSW,238,8.0,8.0,42,0.00,,,0.00,Wunderground v.1.15,2013-10-24 20:20:00,
2013-10-24 16:30:00,51.7,29.3,29.78,WSW,248,8.0,8.0,42,0.00,,,0.00,Wunderground v.1.15,2013-10-24 20:30:00,
2013-10-24 16:40:00,51.5,29.1,29.78,WSW,256,8.0,8.0,42,0.00,,,0.00,Wunderground v.1.15,2013-10-24 20:40:00,
2013-10-24 16:50:00,51.5,29.7,29.78,West,262,5.0,5.0,43,0.00,,,0.00,Wunderground v.1.15,2013-10-24 20:50:00,
2013-10-24 17:00:00,51.2,29.4,29.78,WNW,285,7.0,37.0,43,0.00,,,0.00,Wunderground v.1.15,2013-10-24 21:00:00,
2013-10-24 17:10:00,50.8,30.2,29.79,West,262,7.0,37.0,45,0.00,,,0.00,Wunderground v.1.15,2013-10-24 21:10:00,
2013-10-24 17:20:00,50.5,29.4,29.79,West,271,6.0,6.0,44,0.00,,,0.00,Wunderground v.1.15,2013-10-24 21:20:00,
2013-10-24 17:30:00,50.1,30.1,29.79,SW,235,4.0,4.0,46,0.00,,,0.00,Wunderground v.1.15,2013-10-24 21:30:00,
2013-10-24 17:40:00,49.1,30.2,29.80,WNW,285,3.0,37.0,48,0.00,,,0.00,Wunderground v.1.15,2013-10-24 21:40:00,
2013-10-24 17:50:00,48.2,30.4,29.80,SW,217,3.0,3.0,50,0.00,,,0.00,Wunderground v.1.15,2013-10-24 21:50:00,
2013-10-24 18:00:00,47.5,30.3,29.80,West,265,2.0,37.0,51,0.00,,,0.00,Wunderground v.1.15,2013-10-24 22:00:00,
2013-10-24 18:10:00,47.2,30.5,29.81,SW,218,3.0,3.0,52,0.00,,,0.00,Wunderground v.1.15,2013-10-24 22:10:00,
2013-10-24 18:20:00,46.7,30.5,29.81,West,262,3.0,3.0,53,0.00,,,0.00,Wunderground v.1.15,2013-10-24 22:20:00,
2013-10-24 18:30:00,46.4,30.6,29.82,West,263,3.0,37.0,54,0.00,,,0.00,Wunderground v.1.15,2013-10-24 22:30:00,
2013-10-24 18:40:00,46.2,30.5,29.82,WSW,246,3.0,37.0,54,0.00,,,0.00,Wunderground v.1.15,2013-10-24 22:40:00,
2013-10-24 18:50:00,45.7,30.4,29.83,West,263,2.0,37.0,55,0.00,,,0.00,Wunderground v.1.15,2013-10-24 22:50:00,
2013-10-24 19:00:00,45.3,30.5,29.83,WSW,243,3.0,3.0,56,0.00,,,0.00,Wunderground v.1.15,2013-10-24 23:00:00,
2013-10-24 19:10:00,45.2,30.0,29.83,West,273,4.0,37.0,55,0.00,,,0.00,Wunderground v.1.15,2013-10-24 23:10:00,
2013-10-24 19:20:00,45.2,30.0,29.83,West,259,4.0,37.0,55,0.00,,,0.00,Wunderground v.1.15,2013-10-24 23:20:00,
2013-10-24 19:30:00,45.0,29.3,29.83,WNW,287,3.0,3.0,54,0.00,,,0.00,Wunderground v.1.15,2013-10-24 23:30:00,
2013-10-24 19:40:00,44.8,29.6,29.83,WNW,284,2.0,37.0,55,0.00,,,0.00,Wunderground v.1.15,2013-10-24 23:40:00,
2013-10-24 19:50:00,44.5,29.3,29.84,West,281,1.0,37.0,55,0.00,,,0.00,Wunderground v.1.15,2013-10-24 23:50:00,
2013-10-24 20:00:00,44.1,29.4,29.84,WNW,289,1.0,1.0,56,0.00,,,0.00,Wunderground v.1.15,2013-10-25 00:00:00,
2013-10-24 20:10:00,43.6,29.4,29.84,WNW,284,1.0,37.0,57,0.00,,,0.00,Wunderground v.1.15,2013-10-25 00:10:00,
2013-10-24 20:20:00,43.5,29.7,29.84,WNW,291,2.0,37.0,58,0.00,,,0.00,Wunderground v.1.15,2013-10-25 00:20:00,
2013-10-24 20:30:00,43.1,30.1,29.84,WNW,295,2.0,37.0,60,0.00,,,0.00,Wunderground v.1.15,2013-10-25 00:30:00,
2013-10-24 20:40:00,43.1,30.1,29.84,West,279,2.0,37.0,60,0.00,,,0.00,Wunderground v.1.15,2013-10-25 00:40:00,
2013-10-24 20:50:00,43.3,30.3,29.84,West,276,3.0,37.0,60,0.00,,,0.00,Wunderground v.1.15,2013-10-25 00:50:00,
2013-10-24 21:00:00,43.8,30.4,29.84,West,271,4.0,37.0,59,0.00,,,0.00,Wunderground v.1.15,2013-10-25 01:00:00,
2013-10-24 21:10:00,44.0,30.6,29.85,WNW,291,3.0,37.0,59,0.00,,,0.00,Wunderground v.1.15,2013-10-25 01:10:00,
2013-10-24 21:20:00,44.0,30.6,29.85,WNW,288,3.0,3.0,59,0.00,,,0.00,Wunderground v.1.15,2013-10-25 01:20:00,
2013-10-24 21:30:00,44.3,30.9,29.85,West,278,3.0,37.0,59,0.00,,,0.00,Wunderground v.1.15,2013-10-25 01:30:00,
2013-10-24 21:40:00,44.3,30.9,29.85,West,263,3.0,3.0,59,0.00,,,0.00,Wunderground v.1.15,2013-10-25 01:40:00,
2013-10-24 21:50:00,44.2,30.8,29.85,SW,225,3.0,3.0,59,0.00,,,0.00,Wunderground v.1.15,2013-10-25 01:50:00,
2013-10-24 22:00:00,44.2,31.2,29.85,WNW,294,3.0,37.0,60,0.00,,,0.00,Wunderground v.1.15,2013-10-25 02:00:00,
2013-10-24 22:10:00,44.3,30.9,29.85,West,276,4.0,4.0,59,0.00,,,0.00,Wunderground v.1.15,2013-10-25 02:10:00,
2013-10-24 22:20:00,44.0,31.0,29.85,WSW,255,3.0,37.0,60,0.00,,,0.00,Wunderground v.1.15,2013-10-25 02:20:00,
2013-10-24 22:30:00,43.7,31.1,29.86,West,276,3.0,37.0,61,0.00,,,0.00,Wunderground v.1.15,2013-10-25 02:30:00,
2013-10-24 22:40:00,43.2,31.4,29.86,SW,228,2.0,2.0,63,0.00,,,0.00,Wunderground v.1.15,2013-10-25 02:40:00,
2013-10-24 22:50:00,43.0,31.6,29.86,West,266,2.0,37.0,64,0.00,,,0.00,Wunderground v.1.15,2013-10-25 02:50:00,
2013-10-24 23:00:00,43.1,31.7,29.86,West,274,3.0,37.0,64,0.00,,,0.00,Wunderground v.1.15,2013-10-25 03:00:00,
2013-10-24 23:10:00,43.3,31.9,29.86,WSW,255,4.0,4.0,64,0.00,,,0.00,Wunderground v.1.15,2013-10-25 03:10:00,
2013-10-24 23:20:00,43.4,32.0,29.86,West,267,3.0,37.0,64,0.00,,,0.00,Wunderground v.1.15,2013-10-25 03:20:00,
2013-10-24 23:30:00,43.3,31.9,29.86,WSW,249,4.0,37.0,64,0.00,,,0.00,Wunderground v.1.15,2013-10-25 03:30:00,
2013-10-24 23:40:00,43.3,31.5,29.86,WSW,246,3.0,3.0,63,0.00,,,0.00,Wunderground v.1.15,2013-10-25 03:40:00,
2013-10-24 23:50:00,43.1,31.7,29.86,WNW,287,3.0,37.0,64,0.00,,,0.00,Wunderground v.1.15,2013-10-25 03:50:00,